sensor_id;sensor_type;location;lat;lon;timestamp;P1;durP1;ratioP1;P2;durP2;ratioP2
78885;SDS011;68269;52.514;5.722;2023-06-22T00:02:24;15.10;;;6.95;;
78885;SDS011;68269;52.514;5.722;2023-06-22T00:04:53;16.63;;;7.63;;
78885;SDS011;68269;52.514;5.722;2023-06-22T00:07:22;17.80;;;7.80;;
78885;SDS011;68269;52.514;5.722;2023-06-22T00:09:52;15.80;;;7.25;;
78885;SDS011;68269;52.514;5.722;2023-06-22T00:12:21;18.35;;;8.13;;
78885;SDS011;68269;52.514;5.722;2023-06-22T00:14:50;17.52;;;7.68;;
78885;SDS011;68269;52.514;5.722;2023-06-22T00:17:20;19.27;;;7.70;;
78885;SDS011;68269;52.514;5.722;2023-06-22T00:19:51;18.00;;;7.45;;
78885;SDS011;68269;52.514;5.722;2023-06-22T00:22:21;16.38;;;7.20;;
78885;SDS011;68269;52.514;5.722;2023-06-22T00:24:54;16.60;;;7.47;;
78885;SDS011;68269;52.514;5.722;2023-06-22T00:27:23;16.63;;;7.65;;
78885;SDS011;68269;52.514;5.722;2023-06-22T00:29:53;17.67;;;7.30;;
78885;SDS011;68269;52.514;5.722;2023-06-22T00:32:22;17.88;;;7.97;;
78885;SDS011;68269;52.514;5.722;2023-06-22T00:34:54;18.33;;;8.27;;
78885;SDS011;68269;52.514;5.722;2023-06-22T00:37:23;17.48;;;7.82;;
78885;SDS011;68269;52.514;5.722;2023-06-22T00:39:55;16.98;;;7.88;;
78885;SDS011;68269;52.514;5.722;2023-06-22T00:42:24;19.23;;;8.40;;
78885;SDS011;68269;52.514;5.722;2023-06-22T00:44:54;21.38;;;8.80;;
78885;SDS011;68269;52.514;5.722;2023-06-22T00:47:23;17.33;;;7.82;;
78885;SDS011;68269;52.514;5.722;2023-06-22T00:49:55;17.88;;;8.15;;
78885;SDS011;68269;52.514;5.722;2023-06-22T00:52:26;18.63;;;7.40;;
78885;SDS011;68269;52.514;5.722;2023-06-22T00:54:56;18.50;;;7.82;;
78885;SDS011;68269;52.514;5.722;2023-06-22T00:57:27;18.88;;;8.20;;
78885;SDS011;68269;52.514;5.722;2023-06-22T00:59:57;18.95;;;8.07;;
78885;SDS011;68269;52.514;5.722;2023-06-22T01:02:26;21.00;;;8.48;;
78885;SDS011;68269;52.514;5.722;2023-06-22T01:05:00;17.88;;;7.85;;
78885;SDS011;68269;52.514;5.722;2023-06-22T01:07:31;21.38;;;8.95;;
78885;SDS011;68269;52.514;5.722;2023-06-22T01:10:07;18.48;;;8.43;;
78885;SDS011;68269;52.514;5.722;2023-06-22T01:12:42;17.35;;;8.02;;
78885;SDS011;68269;52.514;5.722;2023-06-22T01:15:15;20.63;;;8.30;;
78885;SDS011;68269;52.514;5.722;2023-06-22T01:17:50;16.73;;;7.28;;
78885;SDS011;68269;52.514;5.722;2023-06-22T01:20:24;18.95;;;7.72;;
78885;SDS011;68269;52.514;5.722;2023-06-22T01:22:59;15.80;;;7.50;;
78885;SDS011;68269;52.514;5.722;2023-06-22T01:25:37;18.83;;;8.02;;
78885;SDS011;68269;52.514;5.722;2023-06-22T01:28:22;16.73;;;7.28;;
78885;SDS011;68269;52.514;5.722;2023-06-22T01:31:00;18.15;;;8.00;;
78885;SDS011;68269;52.514;5.722;2023-06-22T01:33:33;18.13;;;8.35;;
78885;SDS011;68269;52.514;5.722;2023-06-22T01:36:05;22.15;;;8.68;;
78885;SDS011;68269;52.514;5.722;2023-06-22T01:38:36;17.70;;;7.35;;
78885;SDS011;68269;52.514;5.722;2023-06-22T01:41:06;18.70;;;8.07;;
78885;SDS011;68269;52.514;5.722;2023-06-22T01:43:39;17.20;;;7.15;;
78885;SDS011;68269;52.514;5.722;2023-06-22T01:46:09;16.25;;;7.38;;
78885;SDS011;68269;52.514;5.722;2023-06-22T01:48:39;16.30;;;6.80;;
78885;SDS011;68269;52.514;5.722;2023-06-22T01:51:09;18.55;;;7.60;;
78885;SDS011;68269;52.514;5.722;2023-06-22T01:53:39;17.70;;;7.40;;
78885;SDS011;68269;52.514;5.722;2023-06-22T01:56:08;17.00;;;7.25;;
78885;SDS011;68269;52.514;5.722;2023-06-22T01:58:41;18.25;;;8.10;;
78885;SDS011;68269;52.514;5.722;2023-06-22T02:01:18;17.35;;;7.22;;
78885;SDS011;68269;52.514;5.722;2023-06-22T02:03:55;18.60;;;8.15;;
78885;SDS011;68269;52.514;5.722;2023-06-22T02:06:31;16.33;;;7.72;;
78885;SDS011;68269;52.514;5.722;2023-06-22T02:09:06;16.65;;;7.45;;
78885;SDS011;68269;52.514;5.722;2023-06-22T02:11:38;17.15;;;7.60;;
78885;SDS011;68269;52.514;5.722;2023-06-22T02:14:12;17.23;;;7.10;;
78885;SDS011;68269;52.514;5.722;2023-06-22T02:16:42;17.30;;;8.05;;
78885;SDS011;68269;52.514;5.722;2023-06-22T02:19:11;17.63;;;7.57;;
78885;SDS011;68269;52.514;5.722;2023-06-22T02:21:44;17.75;;;8.05;;
78885;SDS011;68269;52.514;5.722;2023-06-22T02:24:13;17.17;;;7.35;;
78885;SDS011;68269;52.514;5.722;2023-06-22T02:26:42;18.23;;;7.85;;
78885;SDS011;68269;52.514;5.722;2023-06-22T02:29:15;20.35;;;8.68;;
78885;SDS011;68269;52.514;5.722;2023-06-22T02:31:44;15.25;;;7.30;;
78885;SDS011;68269;52.514;5.722;2023-06-22T02:34:13;19.02;;;8.18;;
78885;SDS011;68269;52.514;5.722;2023-06-22T02:36:44;18.63;;;8.05;;
78885;SDS011;68269;52.514;5.722;2023-06-22T02:39:17;18.52;;;8.60;;
78885;SDS011;68269;52.514;5.722;2023-06-22T02:41:49;16.90;;;7.68;;
78885;SDS011;68269;52.514;5.722;2023-06-22T02:44:21;18.23;;;8.82;;
78885;SDS011;68269;52.514;5.722;2023-06-22T02:46:50;17.50;;;8.25;;
78885;SDS011;68269;52.514;5.722;2023-06-22T02:49:20;16.52;;;7.55;;
78885;SDS011;68269;52.514;5.722;2023-06-22T02:51:50;17.67;;;8.15;;
78885;SDS011;68269;52.514;5.722;2023-06-22T02:54:20;19.17;;;9.10;;
78885;SDS011;68269;52.514;5.722;2023-06-22T02:56:52;19.00;;;9.25;;
78885;SDS011;68269;52.514;5.722;2023-06-22T02:59:24;18.92;;;9.50;;
78885;SDS011;68269;52.514;5.722;2023-06-22T03:02:00;18.17;;;8.45;;
78885;SDS011;68269;52.514;5.722;2023-06-22T03:04:32;23.08;;;9.40;;
78885;SDS011;68269;52.514;5.722;2023-06-22T03:07:02;19.08;;;7.97;;
78885;SDS011;68269;52.514;5.722;2023-06-22T03:09:32;22.15;;;9.60;;
78885;SDS011;68269;52.514;5.722;2023-06-22T03:12:02;22.40;;;9.88;;
78885;SDS011;68269;52.514;5.722;2023-06-22T03:14:43;21.08;;;9.55;;
78885;SDS011;68269;52.514;5.722;2023-06-22T03:19:42;18.63;;;9.35;;
78885;SDS011;68269;52.514;5.722;2023-06-22T03:22:11;22.73;;;10.15;;
78885;SDS011;68269;52.514;5.722;2023-06-22T03:24:41;20.92;;;10.15;;
78885;SDS011;68269;52.514;5.722;2023-06-22T03:27:10;20.95;;;10.30;;
78885;SDS011;68269;52.514;5.722;2023-06-22T03:29:42;24.95;;;11.35;;
78885;SDS011;68269;52.514;5.722;2023-06-22T03:32:12;24.98;;;11.15;;
78885;SDS011;68269;52.514;5.722;2023-06-22T03:34:41;24.10;;;11.57;;
78885;SDS011;68269;52.514;5.722;2023-06-22T03:37:13;21.20;;;10.27;;
78885;SDS011;68269;52.514;5.722;2023-06-22T03:39:43;21.75;;;11.05;;
78885;SDS011;68269;52.514;5.722;2023-06-22T03:42:14;24.10;;;10.75;;
78885;SDS011;68269;52.514;5.722;2023-06-22T03:44:46;24.70;;;11.00;;
78885;SDS011;68269;52.514;5.722;2023-06-22T03:47:15;26.42;;;11.35;;
78885;SDS011;68269;52.514;5.722;2023-06-22T03:49:44;29.90;;;11.73;;
78885;SDS011;68269;52.514;5.722;2023-06-22T03:52:13;26.52;;;12.18;;
78885;SDS011;68269;52.514;5.722;2023-06-22T03:54:43;24.55;;;11.25;;
78885;SDS011;68269;52.514;5.722;2023-06-22T03:57:12;28.33;;;12.40;;
78885;SDS011;68269;52.514;5.722;2023-06-22T03:59:41;24.58;;;11.45;;
78885;SDS011;68269;52.514;5.722;2023-06-22T04:02:13;26.90;;;13.35;;
78885;SDS011;68269;52.514;5.722;2023-06-22T04:04:43;25.23;;;11.55;;
78885;SDS011;68269;52.514;5.722;2023-06-22T04:07:12;25.70;;;11.52;;
78885;SDS011;68269;52.514;5.722;2023-06-22T04:09:41;26.27;;;13.02;;
78885;SDS011;68269;52.514;5.722;2023-06-22T04:12:10;26.95;;;12.18;;
78885;SDS011;68269;52.514;5.722;2023-06-22T04:14:40;24.38;;;12.40;;
78885;SDS011;68269;52.514;5.722;2023-06-22T04:17:09;27.70;;;12.35;;
78885;SDS011;68269;52.514;5.722;2023-06-22T04:19:43;27.30;;;13.10;;
78885;SDS011;68269;52.514;5.722;2023-06-22T04:22:12;30.80;;;12.70;;
78885;SDS011;68269;52.514;5.722;2023-06-22T04:24:42;31.33;;;13.20;;
78885;SDS011;68269;52.514;5.722;2023-06-22T04:27:11;28.38;;;12.48;;
78885;SDS011;68269;52.514;5.722;2023-06-22T04:29:40;24.92;;;12.60;;
78885;SDS011;68269;52.514;5.722;2023-06-22T04:32:14;27.88;;;12.70;;
78885;SDS011;68269;52.514;5.722;2023-06-22T04:34:46;23.55;;;12.00;;
78885;SDS011;68269;52.514;5.722;2023-06-22T04:37:15;27.38;;;12.25;;
78885;SDS011;68269;52.514;5.722;2023-06-22T04:39:44;29.27;;;13.82;;
78885;SDS011;68269;52.514;5.722;2023-06-22T04:42:14;31.63;;;13.20;;
78885;SDS011;68269;52.514;5.722;2023-06-22T04:44:43;26.15;;;12.40;;
78885;SDS011;68269;52.514;5.722;2023-06-22T04:47:12;29.75;;;12.65;;
78885;SDS011;68269;52.514;5.722;2023-06-22T04:49:42;24.90;;;12.05;;
78885;SDS011;68269;52.514;5.722;2023-06-22T04:52:14;29.27;;;13.75;;
78885;SDS011;68269;52.514;5.722;2023-06-22T04:54:46;27.90;;;13.18;;
78885;SDS011;68269;52.514;5.722;2023-06-22T04:57:21;28.52;;;11.57;;
78885;SDS011;68269;52.514;5.722;2023-06-22T04:59:58;27.27;;;13.15;;
78885;SDS011;68269;52.514;5.722;2023-06-22T05:05:06;28.77;;;13.88;;
78885;SDS011;68269;52.514;5.722;2023-06-22T05:07:41;27.88;;;14.18;;
78885;SDS011;68269;52.514;5.722;2023-06-22T05:10:14;28.90;;;13.52;;
78885;SDS011;68269;52.514;5.722;2023-06-22T05:12:43;25.95;;;14.02;;
78885;SDS011;68269;52.514;5.722;2023-06-22T05:15:12;27.00;;;13.85;;
78885;SDS011;68269;52.514;5.722;2023-06-22T05:17:42;27.35;;;14.10;;
78885;SDS011;68269;52.514;5.722;2023-06-22T05:20:13;28.05;;;14.13;;
78885;SDS011;68269;52.514;5.722;2023-06-22T05:22:46;28.85;;;13.70;;
78885;SDS011;68269;52.514;5.722;2023-06-22T05:25:15;23.38;;;11.75;;
78885;SDS011;68269;52.514;5.722;2023-06-22T05:27:45;29.00;;;14.05;;
78885;SDS011;68269;52.514;5.722;2023-06-22T05:30:16;23.30;;;11.70;;
78885;SDS011;68269;52.514;5.722;2023-06-22T05:32:45;29.55;;;13.55;;
78885;SDS011;68269;52.514;5.722;2023-06-22T05:35:15;28.05;;;14.18;;
78885;SDS011;68269;52.514;5.722;2023-06-22T05:37:47;25.27;;;12.88;;
78885;SDS011;68269;52.514;5.722;2023-06-22T05:40:17;27.75;;;13.50;;
78885;SDS011;68269;52.514;5.722;2023-06-22T05:42:46;28.25;;;13.02;;
78885;SDS011;68269;52.514;5.722;2023-06-22T05:45:15;29.00;;;13.55;;
78885;SDS011;68269;52.514;5.722;2023-06-22T05:47:45;27.55;;;13.50;;
78885;SDS011;68269;52.514;5.722;2023-06-22T05:50:14;26.38;;;14.27;;
78885;SDS011;68269;52.514;5.722;2023-06-22T05:52:43;31.85;;;15.15;;
78885;SDS011;68269;52.514;5.722;2023-06-22T05:55:15;29.38;;;13.50;;
78885;SDS011;68269;52.514;5.722;2023-06-22T05:57:45;25.65;;;13.10;;
78885;SDS011;68269;52.514;5.722;2023-06-22T06:00:14;27.60;;;12.75;;
78885;SDS011;68269;52.514;5.722;2023-06-22T06:02:44;29.83;;;13.90;;
78885;SDS011;68269;52.514;5.722;2023-06-22T06:05:15;26.75;;;12.85;;
78885;SDS011;68269;52.514;5.722;2023-06-22T06:07:47;27.55;;;13.20;;
78885;SDS011;68269;52.514;5.722;2023-06-22T06:10:17;30.80;;;13.05;;
78885;SDS011;68269;52.514;5.722;2023-06-22T06:12:46;27.42;;;12.57;;
78885;SDS011;68269;52.514;5.722;2023-06-22T06:15:15;26.92;;;12.95;;
78885;SDS011;68269;52.514;5.722;2023-06-22T06:17:45;26.85;;;12.52;;
78885;SDS011;68269;52.514;5.722;2023-06-22T06:20:15;29.27;;;14.07;;
78885;SDS011;68269;52.514;5.722;2023-06-22T06:22:50;27.38;;;12.05;;
78885;SDS011;68269;52.514;5.722;2023-06-22T06:25:20;24.50;;;11.90;;
78885;SDS011;68269;52.514;5.722;2023-06-22T06:27:52;26.00;;;10.75;;
78885;SDS011;68269;52.514;5.722;2023-06-22T06:30:22;23.55;;;11.48;;
78885;SDS011;68269;52.514;5.722;2023-06-22T06:32:51;22.70;;;11.32;;
78885;SDS011;68269;52.514;5.722;2023-06-22T06:35:21;20.20;;;9.25;;
78885;SDS011;68269;52.514;5.722;2023-06-22T06:37:53;20.65;;;9.45;;
78885;SDS011;68269;52.514;5.722;2023-06-22T06:40:22;20.13;;;9.10;;
78885;SDS011;68269;52.514;5.722;2023-06-22T06:42:52;21.45;;;8.50;;
78885;SDS011;68269;52.514;5.722;2023-06-22T06:45:22;20.40;;;8.88;;
78885;SDS011;68269;52.514;5.722;2023-06-22T06:47:54;19.80;;;10.27;;
78885;SDS011;68269;52.514;5.722;2023-06-22T06:50:23;21.85;;;9.30;;
78885;SDS011;68269;52.514;5.722;2023-06-22T06:52:55;21.25;;;8.93;;
78885;SDS011;68269;52.514;5.722;2023-06-22T06:55:24;21.23;;;8.48;;
78885;SDS011;68269;52.514;5.722;2023-06-22T06:57:54;19.30;;;8.02;;
78885;SDS011;68269;52.514;5.722;2023-06-22T07:00:23;16.38;;;6.85;;
78885;SDS011;68269;52.514;5.722;2023-06-22T07:02:53;20.95;;;9.73;;
78885;SDS011;68269;52.514;5.722;2023-06-22T07:05:22;19.83;;;8.38;;
78885;SDS011;68269;52.514;5.722;2023-06-22T07:07:52;16.38;;;6.72;;
78885;SDS011;68269;52.514;5.722;2023-06-22T07:10:23;18.48;;;8.00;;
78885;SDS011;68269;52.514;5.722;2023-06-22T07:12:53;14.10;;;6.30;;
78885;SDS011;68269;52.514;5.722;2023-06-22T07:15:22;15.75;;;5.97;;
78885;SDS011;68269;52.514;5.722;2023-06-22T07:17:52;14.48;;;6.43;;
78885;SDS011;68269;52.514;5.722;2023-06-22T07:20:21;16.15;;;6.93;;
78885;SDS011;68269;52.514;5.722;2023-06-22T07:22:50;14.77;;;7.22;;
78885;SDS011;68269;52.514;5.722;2023-06-22T07:25:23;17.63;;;8.50;;
78885;SDS011;68269;52.514;5.722;2023-06-22T07:27:59;14.43;;;5.63;;
78885;SDS011;68269;52.514;5.722;2023-06-22T07:30:29;17.23;;;8.15;;
78885;SDS011;68269;52.514;5.722;2023-06-22T07:32:59;17.00;;;7.70;;
78885;SDS011;68269;52.514;5.722;2023-06-22T07:35:30;18.45;;;7.65;;
78885;SDS011;68269;52.514;5.722;2023-06-22T07:37:59;17.02;;;6.78;;
78885;SDS011;68269;52.514;5.722;2023-06-22T07:40:32;19.67;;;7.07;;
78885;SDS011;68269;52.514;5.722;2023-06-22T07:43:01;16.73;;;7.72;;
78885;SDS011;68269;52.514;5.722;2023-06-22T07:45:31;13.13;;;5.82;;
78885;SDS011;68269;52.514;5.722;2023-06-22T07:48:02;16.13;;;6.40;;
78885;SDS011;68269;52.514;5.722;2023-06-22T07:50:31;16.30;;;7.32;;
78885;SDS011;68269;52.514;5.722;2023-06-22T07:53:00;16.10;;;8.23;;
78885;SDS011;68269;52.514;5.722;2023-06-22T07:55:32;15.05;;;7.20;;
78885;SDS011;68269;52.514;5.722;2023-06-22T07:58:02;17.73;;;6.30;;
78885;SDS011;68269;52.514;5.722;2023-06-22T08:00:31;14.63;;;6.32;;
78885;SDS011;68269;52.514;5.722;2023-06-22T08:03:02;17.08;;;6.43;;
78885;SDS011;68269;52.514;5.722;2023-06-22T08:05:31;18.42;;;7.15;;
78885;SDS011;68269;52.514;5.722;2023-06-22T08:08:01;14.68;;;6.63;;
78885;SDS011;68269;52.514;5.722;2023-06-22T08:10:32;14.23;;;6.47;;
78885;SDS011;68269;52.514;5.722;2023-06-22T08:13:02;14.98;;;7.45;;
78885;SDS011;68269;52.514;5.722;2023-06-22T08:15:31;16.33;;;7.47;;
78885;SDS011;68269;52.514;5.722;2023-06-22T08:18:00;13.82;;;5.70;;
78885;SDS011;68269;52.514;5.722;2023-06-22T08:20:30;14.18;;;6.90;;
78885;SDS011;68269;52.514;5.722;2023-06-22T08:22:59;15.40;;;6.07;;
78885;SDS011;68269;52.514;5.722;2023-06-22T08:25:34;16.15;;;6.43;;
78885;SDS011;68269;52.514;5.722;2023-06-22T08:28:04;13.02;;;5.40;;
78885;SDS011;68269;52.514;5.722;2023-06-22T08:30:33;12.95;;;5.28;;
78885;SDS011;68269;52.514;5.722;2023-06-22T08:33:03;13.93;;;5.93;;
78885;SDS011;68269;52.514;5.722;2023-06-22T08:35:32;13.98;;;4.95;;
78885;SDS011;68269;52.514;5.722;2023-06-22T08:38:01;14.85;;;6.35;;
78885;SDS011;68269;52.514;5.722;2023-06-22T08:40:31;13.60;;;6.35;;
78885;SDS011;68269;52.514;5.722;2023-06-22T08:43:02;13.57;;;4.75;;
78885;SDS011;68269;52.514;5.722;2023-06-22T08:45:32;15.23;;;6.00;;
78885;SDS011;68269;52.514;5.722;2023-06-22T08:48:01;14.25;;;6.00;;
78885;SDS011;68269;52.514;5.722;2023-06-22T08:50:30;19.95;;;6.18;;
78885;SDS011;68269;52.514;5.722;2023-06-22T08:53:00;10.70;;;4.13;;
78885;SDS011;68269;52.514;5.722;2023-06-22T08:55:29;13.82;;;5.55;;
78885;SDS011;68269;52.514;5.722;2023-06-22T08:58:01;15.10;;;6.28;;
78885;SDS011;68269;52.514;5.722;2023-06-22T09:00:30;13.52;;;5.65;;
78885;SDS011;68269;52.514;5.722;2023-06-22T09:03:00;12.55;;;5.90;;
78885;SDS011;68269;52.514;5.722;2023-06-22T09:05:30;15.73;;;5.85;;
78885;SDS011;68269;52.514;5.722;2023-06-22T09:07:59;13.73;;;5.03;;
78885;SDS011;68269;52.514;5.722;2023-06-22T09:10:29;13.95;;;5.18;;
78885;SDS011;68269;52.514;5.722;2023-06-22T09:13:00;16.05;;;5.95;;
78885;SDS011;68269;52.514;5.722;2023-06-22T09:15:30;12.20;;;5.63;;
78885;SDS011;68269;52.514;5.722;2023-06-22T09:18:00;14.07;;;5.22;;
78885;SDS011;68269;52.514;5.722;2023-06-22T09:20:32;12.52;;;5.20;;
78885;SDS011;68269;52.514;5.722;2023-06-22T09:23:02;13.20;;;5.38;;
78885;SDS011;68269;52.514;5.722;2023-06-22T09:25:31;11.88;;;4.60;;
78885;SDS011;68269;52.514;5.722;2023-06-22T09:28:03;13.85;;;5.57;;
78885;SDS011;68269;52.514;5.722;2023-06-22T09:30:32;13.73;;;6.13;;
78885;SDS011;68269;52.514;5.722;2023-06-22T09:33:02;14.13;;;6.07;;
78885;SDS011;68269;52.514;5.722;2023-06-22T09:35:31;13.40;;;5.53;;
78885;SDS011;68269;52.514;5.722;2023-06-22T09:38:01;13.65;;;5.88;;
78885;SDS011;68269;52.514;5.722;2023-06-22T09:40:30;12.90;;;4.80;;
78885;SDS011;68269;52.514;5.722;2023-06-22T09:43:08;13.13;;;4.72;;
78885;SDS011;68269;52.514;5.722;2023-06-22T09:45:37;13.02;;;4.60;;
78885;SDS011;68269;52.514;5.722;2023-06-22T09:48:06;10.98;;;3.97;;
78885;SDS011;68269;52.514;5.722;2023-06-22T09:50:36;11.43;;;5.20;;
78885;SDS011;68269;52.514;5.722;2023-06-22T09:53:05;13.90;;;4.93;;
78885;SDS011;68269;52.514;5.722;2023-06-22T09:55:34;12.15;;;4.72;;
78885;SDS011;68269;52.514;5.722;2023-06-22T09:58:09;13.27;;;4.68;;
78885;SDS011;68269;52.514;5.722;2023-06-22T10:00:38;10.57;;;4.43;;
78885;SDS011;68269;52.514;5.722;2023-06-22T10:03:08;13.45;;;5.10;;
78885;SDS011;68269;52.514;5.722;2023-06-22T10:05:37;12.48;;;5.30;;
78885;SDS011;68269;52.514;5.722;2023-06-22T10:08:06;14.02;;;5.00;;
78885;SDS011;68269;52.514;5.722;2023-06-22T10:10:38;12.20;;;5.15;;
78885;SDS011;68269;52.514;5.722;2023-06-22T10:13:13;13.27;;;5.18;;
78885;SDS011;68269;52.514;5.722;2023-06-22T10:15:42;13.65;;;5.38;;
78885;SDS011;68269;52.514;5.722;2023-06-22T10:18:15;10.75;;;4.75;;
78885;SDS011;68269;52.514;5.722;2023-06-22T10:20:48;12.55;;;5.00;;
78885;SDS011;68269;52.514;5.722;2023-06-22T10:23:18;12.05;;;4.97;;
78885;SDS011;68269;52.514;5.722;2023-06-22T10:25:48;12.32;;;4.95;;
78885;SDS011;68269;52.514;5.722;2023-06-22T10:28:20;12.65;;;3.88;;
78885;SDS011;68269;52.514;5.722;2023-06-22T10:30:49;14.68;;;4.45;;
78885;SDS011;68269;52.514;5.722;2023-06-22T10:33:19;10.95;;;5.07;;
78885;SDS011;68269;52.514;5.722;2023-06-22T10:35:48;10.88;;;4.43;;
78885;SDS011;68269;52.514;5.722;2023-06-22T10:38:18;11.43;;;4.32;;
78885;SDS011;68269;52.514;5.722;2023-06-22T10:40:47;10.98;;;4.25;;
78885;SDS011;68269;52.514;5.722;2023-06-22T10:43:16;10.80;;;4.15;;
78885;SDS011;68269;52.514;5.722;2023-06-22T10:45:48;10.98;;;5.22;;
78885;SDS011;68269;52.514;5.722;2023-06-22T10:48:17;12.88;;;3.95;;
78885;SDS011;68269;52.514;5.722;2023-06-22T10:50:47;11.43;;;4.05;;
78885;SDS011;68269;52.514;5.722;2023-06-22T10:53:16;12.63;;;4.88;;
78885;SDS011;68269;52.514;5.722;2023-06-22T10:55:45;10.90;;;4.07;;
78885;SDS011;68269;52.514;5.722;2023-06-22T10:58:14;10.13;;;3.53;;
78885;SDS011;68269;52.514;5.722;2023-06-22T11:00:46;9.30;;;2.88;;
78885;SDS011;68269;52.514;5.722;2023-06-22T11:03:16;12.05;;;3.83;;
78885;SDS011;68269;52.514;5.722;2023-06-22T11:05:45;8.27;;;3.03;;
78885;SDS011;68269;52.514;5.722;2023-06-22T11:08:14;10.57;;;3.00;;
78885;SDS011;68269;52.514;5.722;2023-06-22T11:10:43;9.82;;;3.25;;
78885;SDS011;68269;52.514;5.722;2023-06-22T11:13:13;10.43;;;3.38;;
78885;SDS011;68269;52.514;5.722;2023-06-22T11:15:42;11.38;;;3.95;;
78885;SDS011;68269;52.514;5.722;2023-06-22T11:18:14;10.00;;;3.58;;
78885;SDS011;68269;52.514;5.722;2023-06-22T11:20:43;11.80;;;3.30;;
78885;SDS011;68269;52.514;5.722;2023-06-22T11:23:15;9.52;;;3.55;;
78885;SDS011;68269;52.514;5.722;2023-06-22T11:25:44;9.35;;;3.40;;
78885;SDS011;68269;52.514;5.722;2023-06-22T11:28:14;10.95;;;3.50;;
78885;SDS011;68269;52.514;5.722;2023-06-22T11:30:43;10.27;;;3.08;;
78885;SDS011;68269;52.514;5.722;2023-06-22T11:33:15;8.98;;;3.08;;
78885;SDS011;68269;52.514;5.722;2023-06-22T11:35:44;8.18;;;2.63;;
78885;SDS011;68269;52.514;5.722;2023-06-22T11:38:13;7.53;;;2.50;;
78885;SDS011;68269;52.514;5.722;2023-06-22T11:40:43;8.32;;;2.80;;
78885;SDS011;68269;52.514;5.722;2023-06-22T11:43:12;8.18;;;2.80;;
78885;SDS011;68269;52.514;5.722;2023-06-22T11:45:41;9.48;;;3.00;;
78885;SDS011;68269;52.514;5.722;2023-06-22T11:48:11;8.07;;;3.05;;
78885;SDS011;68269;52.514;5.722;2023-06-22T11:50:43;8.32;;;2.78;;
78885;SDS011;68269;52.514;5.722;2023-06-22T11:53:12;11.25;;;3.20;;
78885;SDS011;68269;52.514;5.722;2023-06-22T11:55:42;10.32;;;3.03;;
78885;SDS011;68269;52.514;5.722;2023-06-22T11:58:12;7.65;;;2.90;;
78885;SDS011;68269;52.514;5.722;2023-06-22T12:00:41;7.57;;;2.40;;
78885;SDS011;68269;52.514;5.722;2023-06-22T12:03:11;8.73;;;2.80;;
78885;SDS011;68269;52.514;5.722;2023-06-22T12:05:43;9.13;;;2.95;;
78885;SDS011;68269;52.514;5.722;2023-06-22T12:08:12;7.75;;;3.00;;
78885;SDS011;68269;52.514;5.722;2023-06-22T12:10:42;7.13;;;2.70;;
78885;SDS011;68269;52.514;5.722;2023-06-22T12:13:11;7.53;;;2.55;;
78885;SDS011;68269;52.514;5.722;2023-06-22T12:15:40;10.05;;;2.92;;
78885;SDS011;68269;52.514;5.722;2023-06-22T12:18:10;9.75;;;2.70;;
78885;SDS011;68269;52.514;5.722;2023-06-22T12:20:42;7.88;;;3.05;;
78885;SDS011;68269;52.514;5.722;2023-06-22T12:23:12;7.15;;;2.70;;
78885;SDS011;68269;52.514;5.722;2023-06-22T12:25:41;8.98;;;2.80;;
78885;SDS011;68269;52.514;5.722;2023-06-22T12:28:11;7.32;;;2.47;;
78885;SDS011;68269;52.514;5.722;2023-06-22T12:30:40;8.15;;;2.78;;
78885;SDS011;68269;52.514;5.722;2023-06-22T12:33:09;7.43;;;2.72;;
78885;SDS011;68269;52.514;5.722;2023-06-22T12:35:39;9.48;;;2.97;;
78885;SDS011;68269;52.514;5.722;2023-06-22T12:38:11;11.23;;;3.10;;
78885;SDS011;68269;52.514;5.722;2023-06-22T12:40:40;11.77;;;2.97;;
78885;SDS011;68269;52.514;5.722;2023-06-22T12:43:10;9.02;;;3.35;;
78885;SDS011;68269;52.514;5.722;2023-06-22T12:45:39;9.48;;;3.30;;
78885;SDS011;68269;52.514;5.722;2023-06-22T12:48:08;7.68;;;2.72;;
78885;SDS011;68269;52.514;5.722;2023-06-22T12:50:38;10.32;;;3.55;;
78885;SDS011;68269;52.514;5.722;2023-06-22T12:53:07;9.85;;;3.55;;
78885;SDS011;68269;52.514;5.722;2023-06-22T12:55:39;9.73;;;3.15;;
78885;SDS011;68269;52.514;5.722;2023-06-22T12:58:08;8.95;;;4.40;;
78885;SDS011;68269;52.514;5.722;2023-06-22T13:00:38;10.40;;;4.15;;
78885;SDS011;68269;52.514;5.722;2023-06-22T13:03:07;10.27;;;3.92;;
78885;SDS011;68269;52.514;5.722;2023-06-22T13:05:37;10.20;;;3.83;;
78885;SDS011;68269;52.514;5.722;2023-06-22T13:08:06;10.07;;;3.67;;
78885;SDS011;68269;52.514;5.722;2023-06-22T13:10:39;9.75;;;3.83;;
78885;SDS011;68269;52.514;5.722;2023-06-22T13:13:08;9.77;;;4.03;;
78885;SDS011;68269;52.514;5.722;2023-06-22T13:15:37;10.23;;;3.88;;
78885;SDS011;68269;52.514;5.722;2023-06-22T13:18:07;10.15;;;3.30;;
78885;SDS011;68269;52.514;5.722;2023-06-22T13:20:36;11.07;;;3.47;;
78885;SDS011;68269;52.514;5.722;2023-06-22T13:23:05;8.85;;;3.35;;
78885;SDS011;68269;52.514;5.722;2023-06-22T13:25:34;9.77;;;3.85;;
78885;SDS011;68269;52.514;5.722;2023-06-22T13:28:06;9.32;;;3.35;;
78885;SDS011;68269;52.514;5.722;2023-06-22T13:30:36;10.70;;;4.28;;
78885;SDS011;68269;52.514;5.722;2023-06-22T13:33:05;11.70;;;4.50;;
78885;SDS011;68269;52.514;5.722;2023-06-22T13:35:35;10.68;;;3.85;;
78885;SDS011;68269;52.514;5.722;2023-06-22T13:38:04;9.75;;;3.55;;
78885;SDS011;68269;52.514;5.722;2023-06-22T13:40:34;9.32;;;4.05;;
78885;SDS011;68269;52.514;5.722;2023-06-22T13:43:03;9.80;;;4.18;;
78885;SDS011;68269;52.514;5.722;2023-06-22T13:45:35;10.27;;;4.47;;
78885;SDS011;68269;52.514;5.722;2023-06-22T13:48:05;10.02;;;4.10;;
78885;SDS011;68269;52.514;5.722;2023-06-22T13:50:34;11.07;;;4.55;;
78885;SDS011;68269;52.514;5.722;2023-06-22T13:53:04;11.25;;;5.28;;
78885;SDS011;68269;52.514;5.722;2023-06-22T13:55:33;11.10;;;4.35;;
78885;SDS011;68269;52.514;5.722;2023-06-22T13:58:02;12.63;;;4.78;;
78885;SDS011;68269;52.514;5.722;2023-06-22T14:00:34;11.43;;;4.78;;
78885;SDS011;68269;52.514;5.722;2023-06-22T14:03:03;11.48;;;4.43;;
78885;SDS011;68269;52.514;5.722;2023-06-22T14:05:33;11.38;;;4.57;;
78885;SDS011;68269;52.514;5.722;2023-06-22T14:08:02;10.10;;;4.53;;
78885;SDS011;68269;52.514;5.722;2023-06-22T14:10:31;16.58;;;5.53;;
78885;SDS011;68269;52.514;5.722;2023-06-22T14:13:01;11.80;;;5.75;;
78885;SDS011;68269;52.514;5.722;2023-06-22T14:15:34;12.10;;;5.18;;
78885;SDS011;68269;52.514;5.722;2023-06-22T14:18:03;12.35;;;5.50;;
78885;SDS011;68269;52.514;5.722;2023-06-22T14:20:32;12.40;;;5.65;;
78885;SDS011;68269;52.514;5.722;2023-06-22T14:23:02;13.30;;;6.07;;
78885;SDS011;68269;52.514;5.722;2023-06-22T14:25:31;14.07;;;6.05;;
78885;SDS011;68269;52.514;5.722;2023-06-22T14:28:00;11.98;;;5.43;;
78885;SDS011;68269;52.514;5.722;2023-06-22T14:30:29;13.40;;;6.63;;
78885;SDS011;68269;52.514;5.722;2023-06-22T14:33:01;13.80;;;5.05;;
78885;SDS011;68269;52.514;5.722;2023-06-22T14:35:31;15.52;;;5.28;;
78885;SDS011;68269;52.514;5.722;2023-06-22T14:38:00;14.88;;;5.93;;
78885;SDS011;68269;52.514;5.722;2023-06-22T14:40:29;17.30;;;6.35;;
78885;SDS011;68269;52.514;5.722;2023-06-22T14:42:59;13.05;;;6.07;;
78885;SDS011;68269;52.514;5.722;2023-06-22T14:45:28;14.27;;;5.97;;
78885;SDS011;68269;52.514;5.722;2023-06-22T14:47:57;11.82;;;4.55;;
78885;SDS011;68269;52.514;5.722;2023-06-22T14:50:29;12.43;;;5.65;;
78885;SDS011;68269;52.514;5.722;2023-06-22T14:52:58;14.02;;;5.63;;
78885;SDS011;68269;52.514;5.722;2023-06-22T14:55:28;15.45;;;5.55;;
78885;SDS011;68269;52.514;5.722;2023-06-22T14:57:57;13.82;;;6.05;;